Time;durP1;ratioP1;P1;durP2;ratioP2;P2;SDS_P1;SDS_P2;PMS_P1;PMS_P2;Temp;Humidity;BMP_temperature;BMP_pressure;BME280_temperature;BME280_humidity;BME280_pressure;Samples;Min_cycle;Max_cycle;Signal;HPM_P1;HPM_P2
2022/03/12 00:00:46;;;;;;;6.88;1.52;;;;;;;;;;4995491;28;20511;-54
2022/03/12 00:03:13;;;;;;;8.30;1.52;;;;;;;;;;4984090;28;20174;-53
2022/03/12 00:05:46;;;;;;;6.13;1.45;;;;;;;;;;4984819;28;20038;-54
2022/03/12 00:08:12;;;;;;;4.85;1.67;;;;;;;;;;4985253;28;20041;-56
2022/03/12 00:10:41;;;;;;;10.52;1.92;;;;;;;;;;5001453;28;20042;-56
2022/03/12 00:13:07;;;;;;;18.60;2.17;;;;;;;;;;4992215;28;20050;-55
2022/03/12 00:15:33;;;;;;;7.75;2.10;;;;;;;;;;4990386;28;20503;-55
2022/03/12 00:17:59;;;;;;;13.18;3.00;;;;;;;;;;4981927;28;20544;-56
2022/03/12 00:20:28;;;;;;;10.32;2.72;;;;;;;;;;4986038;28;20025;-56
2022/03/12 00:22:54;;;;;;;9.65;2.20;;;;;;;;;;4982272;28;20058;-56
2022/03/12 00:25:25;;;;;;;6.60;2.70;;;;;;;;;;4989863;28;20069;-55
2022/03/12 00:27:51;;;;;;;8.65;2.22;;;;;;;;;;4987772;28;20034;-56
2022/03/12 00:30:24;;;;;;;8.32;2.17;;;;;;;;;;4990828;28;20030;-55
2022/03/12 00:32:51;;;;;;;5.78;1.90;;;;;;;;;;4993355;28;20832;-55
2022/03/12 00:35:18;;;;;;;8.23;2.10;;;;;;;;;;4989652;28;20022;-55
2022/03/12 00:37:44;;;;;;;7.88;2.13;;;;;;;;;;4992783;28;20046;-54
2022/03/12 00:40:11;;;;;;;5.53;1.80;;;;;;;;;;4994467;28;20189;-55
2022/03/12 00:42:36;;;;;;;11.00;2.25;;;;;;;;;;4987450;28;20054;-57
2022/03/12 00:45:02;;;;;;;6.03;1.42;;;;;;;;;;4990542;28;20058;-57
2022/03/12 00:47:28;;;;;;;7.82;1.40;;;;;;;;;;4994872;28;20552;-54
2022/03/12 00:49:54;;;;;;;7.10;1.45;;;;;;;;;;4995719;28;20611;-54
2022/03/12 00:52:20;;;;;;;7.95;1.80;;;;;;;;;;4989668;28;20045;-56
2022/03/12 00:54:46;;;;;;;12.02;1.85;;;;;;;;;;4990920;28;20081;-54
2022/03/12 00:57:13;;;;;;;7.88;0.95;;;;;;;;;;4994586;28;20042;-54
2022/03/12 00:59:42;;;;;;;8.95;1.42;;;;;;;;;;4989318;28;20045;-54
2022/03/12 01:02:14;;;;;;;8.25;1.23;;;;;;;;;;4994979;28;20022;-54
2022/03/12 01:04:40;;;;;;;9.52;1.13;;;;;;;;;;4986835;28;20180;-54
2022/03/12 01:07:06;;;;;;;8.82;0.90;;;;;;;;;;4987200;28;20160;-54
2022/03/12 01:09:31;;;;;;;8.60;1.23;;;;;;;;;;4986821;28;20038;-53
2022/03/12 01:11:57;;;;;;;11.75;1.45;;;;;;;;;;4982337;28;20034;-54
2022/03/12 01:14:23;;;;;;;8.90;0.80;;;;;;;;;;4994959;28;20023;-54
2022/03/12 01:16:49;;;;;;;10.07;1.15;;;;;;;;;;4989580;28;20298;-56
2022/03/12 01:19:15;;;;;;;3.55;0.88;;;;;;;;;;4989094;28;20060;-56
2022/03/12 01:21:41;;;;;;;3.10;0.80;;;;;;;;;;4990162;28;20481;-56
2022/03/12 01:24:07;;;;;;;9.27;1.85;;;;;;;;;;5001080;28;20635;-55
2022/03/12 01:26:34;;;;;;;9.20;1.77;;;;;;;;;;4989389;28;20144;-56
2022/03/12 01:29:00;;;;;;;9.02;2.75;;;;;;;;;;4991815;28;20251;-54
2022/03/12 01:31:25;;;;;;;4.43;1.25;;;;;;;;;;4985512;28;20154;-55
2022/03/12 01:33:51;;;;;;;13.75;1.65;;;;;;;;;;5001886;28;20046;-54
2022/03/12 01:36:17;;;;;;;5.07;1.08;;;;;;;;;;4991047;28;20034;-54
2022/03/12 01:38:53;;;;;;;4.60;1.30;;;;;;;;;;4990348;28;20049;-56
2022/03/12 01:41:22;;;;;;;8.30;2.03;;;;;;;;;;4975160;28;20105;-55
2022/03/12 01:43:49;;;;;;;10.40;1.70;;;;;;;;;;4975042;28;20100;-56
2022/03/12 01:46:15;;;;;;;8.75;1.25;;;;;;;;;;4974364;28;20606;-54
2022/03/12 01:48:50;;;;;;;6.22;1.30;;;;;;;;;;4976236;28;20078;-54
2022/03/12 01:51:16;;;;;;;8.40;1.30;;;;;;;;;;4975578;28;20057;-55
2022/03/12 01:53:42;;;;;;;8.23;0.95;;;;;;;;;;4976219;28;20030;-54
2022/03/12 01:56:09;;;;;;;9.80;2.20;;;;;;;;;;4973321;28;20930;-56
2022/03/12 01:58:35;;;;;;;5.72;1.08;;;;;;;;;;4975534;28;20092;-55
2022/03/12 02:01:01;;;;;;;12.07;0.88;;;;;;;;;;4982046;28;20297;-55
2022/03/12 02:03:28;;;;;;;7.68;1.30;;;;;;;;;;4988092;28;20242;-55
2022/03/12 02:05:55;;;;;;;8.90;1.08;;;;;;;;;;4988992;28;20026;-54
2022/03/12 02:08:21;;;;;;;9.68;1.13;;;;;;;;;;4992658;28;20247;-56
2022/03/12 02:10:50;;;;;;;11.48;1.67;;;;;;;;;;4982292;28;20046;-56
2022/03/12 02:13:16;;;;;;;7.43;1.10;;;;;;;;;;4992401;28;20030;-55
2022/03/12 02:15:43;;;;;;;10.75;1.38;;;;;;;;;;4990167;28;20385;-57
2022/03/12 02:18:09;;;;;;;9.82;1.35;;;;;;;;;;4986180;28;20034;-56
2022/03/12 02:20:35;;;;;;;8.18;0.98;;;;;;;;;;4987340;28;20027;-56
2022/03/12 02:23:00;;;;;;;8.60;1.00;;;;;;;;;;4981326;28;20027;-57
2022/03/12 02:25:31;;;;;;;3.67;1.00;;;;;;;;;;4985772;28;20041;-55
2022/03/12 02:27:57;;;;;;;7.25;1.20;;;;;;;;;;4985798;28;20100;-57
2022/03/12 02:30:33;;;;;;;7.47;0.73;;;;;;;;;;4987402;28;20034;-56
2022/03/12 02:33:01;;;;;;;10.13;1.15;;;;;;;;;;4990638;28;20034;-56
2022/03/12 02:35:34;;;;;;;8.70;1.25;;;;;;;;;;4982178;28;20039;-57
2022/03/12 02:38:00;;;;;;;13.13;2.00;;;;;;;;;;4981487;28;20058;-57
2022/03/12 02:40:26;;;;;;;8.90;1.15;;;;;;;;;;4984648;28;20445;-57
2022/03/12 02:42:58;;;;;;;16.48;1.40;;;;;;;;;;4992436;28;20117;-57
2022/03/12 02:45:27;;;;;;;7.75;1.13;;;;;;;;;;5007679;23;20050;-81
2022/03/12 02:47:55;;;;;;;11.38;1.27;;;;;;;;;;4984314;28;20042;-83
2022/03/12 02:50:21;;;;;;;8.00;1.10;;;;;;;;;;4991669;28;20920;-82
2022/03/12 02:52:47;;;;;;;7.47;1.33;;;;;;;;;;4985222;28;20075;-82
2022/03/12 02:55:23;;;;;;;6.53;0.90;;;;;;;;;;4999235;28;20558;-82
2022/03/12 02:57:50;;;;;;;7.38;1.23;;;;;;;;;;4981330;28;20124;-82
2022/03/12 03:00:16;;;;;;;5.25;0.70;;;;;;;;;;5000792;28;20038;-82
2022/03/12 03:02:48;;;;;;;10.30;1.25;;;;;;;;;;4985179;28;20030;-82
2022/03/12 03:05:47;;;;;;;7.33;1.20;;;;;;;;;;5000044;28;20026;-81
2022/03/12 03:08:21;;;;;;;4.93;1.15;;;;;;;;;;4973644;28;20442;-83
2022/03/12 03:10:59;;;;;;;5.38;1.02;;;;;;;;;;4982690;28;20036;-83
2022/03/12 03:13:27;;;;;;;7.53;0.93;;;;;;;;;;4984206;28;20022;-82
2022/03/12 03:15:56;;;;;;;7.28;1.15;;;;;;;;;;4976066;28;20031;-83
2022/03/12 03:18:24;;;;;;;6.25;1.05;;;;;;;;;;4967943;28;20510;-82
2022/03/12 03:20:51;;;;;;;9.50;0.68;;;;;;;;;;4966488;28;20087;-82
2022/03/12 03:23:18;;;;;;;5.43;1.20;;;;;;;;;;4980402;28;20033;-82
2022/03/12 03:25:43;;;;;;;7.80;0.98;;;;;;;;;;4973146;28;20093;-81
2022/03/12 03:28:09;;;;;;;8.13;0.50;;;;;;;;;;4963035;28;20030;-81
2022/03/12 03:30:37;;;;;;;6.63;0.70;;;;;;;;;;4966381;28;20026;-82
2022/03/12 03:33:07;;;;;;;9.90;0.80;;;;;;;;;;4960911;28;20033;-82
2022/03/12 03:35:32;;;;;;;3.88;0.73;;;;;;;;;;4962679;28;20031;-81
2022/03/12 03:37:58;;;;;;;12.00;1.20;;;;;;;;;;4979825;28;20097;-82
2022/03/12 03:40:24;;;;;;;6.53;0.77;;;;;;;;;;4964658;28;20155;-81
2022/03/12 03:42:50;;;;;;;9.98;1.08;;;;;;;;;;4965638;28;20026;-82
2022/03/12 03:45:24;;;;;;;2.67;0.95;;;;;;;;;;4963890;28;20073;-82
2022/03/12 03:47:51;;;;;;;4.88;0.60;;;;;;;;;;4963243;28;20031;-81
2022/03/12 03:50:18;;;;;;;11.43;1.23;;;;;;;;;;4961699;28;20113;-82
2022/03/12 03:52:44;;;;;;;5.28;1.10;;;;;;;;;;4980202;28;20118;-81
2022/03/12 03:55:10;;;;;;;7.05;1.10;;;;;;;;;;4965348;28;20101;-81
2022/03/12 03:57:36;;;;;;;6.60;1.65;;;;;;;;;;4965062;28;20085;-81
2022/03/12 04:00:03;;;;;;;8.43;1.05;;;;;;;;;;4967389;28;20532;-82
2022/03/12 04:02:29;;;;;;;11.25;1.27;;;;;;;;;;4969502;28;20019;-81
2022/03/12 04:04:54;;;;;;;11.55;1.75;;;;;;;;;;4968816;28;20179;-82
2022/03/12 04:07:20;;;;;;;5.15;1.05;;;;;;;;;;4965615;28;20035;-82
2022/03/12 04:09:45;;;;;;;9.70;1.63;;;;;;;;;;4954344;28;20038;-81
2022/03/12 04:12:11;;;;;;;9.88;1.65;;;;;;;;;;4967860;28;20558;-81
2022/03/12 04:14:36;;;;;;;7.65;1.30;;;;;;;;;;4954906;28;20532;-81
2022/03/12 04:17:04;;;;;;;10.20;1.30;;;;;;;;;;4934042;28;20113;-83
2022/03/12 04:19:30;;;;;;;4.40;1.05;;;;;;;;;;4966559;28;20034;-82
2022/03/12 04:21:57;;;;;;;3.65;1.02;;;;;;;;;;4970257;28;20040;-82
2022/03/12 04:24:23;;;;;;;8.82;1.10;;;;;;;;;;4969526;28;20037;-82
2022/03/12 04:26:50;;;;;;;7.53;0.95;;;;;;;;;;4968985;28;20034;-81
2022/03/12 04:29:18;;;;;;;5.22;1.38;;;;;;;;;;4971124;28;20042;-81
2022/03/12 04:31:46;;;;;;;5.07;1.48;;;;;;;;;;4986170;28;20097;-82
2022/03/12 04:34:13;;;;;;;4.05;0.73;;;;;;;;;;4982473;28;20186;-81
2022/03/12 04:36:41;;;;;;;7.32;0.93;;;;;;;;;;4968791;28;20038;-81
2022/03/12 04:39:08;;;;;;;6.32;0.88;;;;;;;;;;4972434;28;20050;-81
2022/03/12 04:41:36;;;;;;;6.05;1.13;;;;;;;;;;4967879;28;20050;-81
2022/03/12 04:44:08;;;;;;;11.25;0.88;;;;;;;;;;4954615;28;20023;-81
2022/03/12 04:46:34;;;;;;;5.63;0.85;;;;;;;;;;4982424;28;20097;-81
2022/03/12 04:49:00;;;;;;;10.10;1.13;;;;;;;;;;4963131;28;20033;-81
2022/03/12 04:51:27;;;;;;;6.18;1.58;;;;;;;;;;4965499;28;20133;-82
2022/03/12 04:53:57;;;;;;;5.00;0.75;;;;;;;;;;4967134;28;20042;-80
2022/03/12 04:56:25;;;;;;;2.83;0.90;;;;;;;;;;4982660;28;20060;-81
2022/03/12 04:58:55;;;;;;;6.35;1.10;;;;;;;;;;4987420;28;20023;-82
2022/03/12 05:01:21;;;;;;;9.68;0.98;;;;;;;;;;4982052;28;20736;-81
2022/03/12 05:03:47;;;;;;;11.55;1.42;;;;;;;;;;4971097;28;20113;-80
2022/03/12 05:06:13;;;;;;;9.38;1.40;;;;;;;;;;4985486;28;20034;-80
2022/03/12 05:08:39;;;;;;;4.28;1.00;;;;;;;;;;4949470;28;20439;-81
2022/03/12 05:11:06;;;;;;;9.57;1.75;;;;;;;;;;4970146;28;20443;-81
2022/03/12 05:13:32;;;;;;;7.90;1.13;;;;;;;;;;4970609;28;20696;-81
2022/03/12 05:16:03;;;;;;;6.38;1.15;;;;;;;;;;4963964;28;20030;-81
2022/03/12 05:18:30;;;;;;;9.75;1.63;;;;;;;;;;4979698;28;20039;-81
2022/03/12 05:20:56;;;;;;;6.55;1.58;;;;;;;;;;4967853;28;20392;-82
2022/03/12 05:23:22;;;;;;;8.38;1.30;;;;;;;;;;4968467;28;20027;-81
2022/03/12 05:25:49;;;;;;;9.82;1.65;;;;;;;;;;4982927;28;20060;-82
2022/03/12 05:28:29;;;;;;;6.80;1.38;;;;;;;;;;4966693;28;20131;-82
2022/03/12 05:30:56;;;;;;;5.45;1.38;;;;;;;;;;4968595;28;20193;-81
2022/03/12 05:33:22;;;;;;;10.90;1.17;;;;;;;;;;4979798;28;20089;-80
2022/03/12 05:35:51;;;;;;;6.18;1.52;;;;;;;;;;4964851;28;20039;-82
2022/03/12 05:38:17;;;;;;;6.85;2.00;;;;;;;;;;4986044;28;20073;-81
2022/03/12 05:40:43;;;;;;;14.65;2.55;;;;;;;;;;4969579;28;20027;-82
2022/03/12 05:43:14;;;;;;;8.23;1.90;;;;;;;;;;4980219;28;20175;-81
2022/03/12 05:45:47;;;;;;;7.35;2.20;;;;;;;;;;4952571;28;20051;-82
2022/03/12 05:48:14;;;;;;;7.05;1.73;;;;;;;;;;4956531;28;20126;-81
2022/03/12 05:50:40;;;;;;;10.10;1.90;;;;;;;;;;4955413;28;20038;-81
2022/03/12 05:53:09;;;;;;;10.85;1.95;;;;;;;;;;4968379;28;20045;-82
2022/03/12 05:55:38;;;;;;;9.02;1.30;;;;;;;;;;4953425;28;20486;-82
2022/03/12 05:58:04;;;;;;;10.02;2.15;;;;;;;;;;4969508;28;20096;-81
2022/03/12 06:00:32;;;;;;;7.60;1.70;;;;;;;;;;4971284;28;20030;-82
2022/03/12 06:02:58;;;;;;;5.40;2.13;;;;;;;;;;4982085;28;20026;-81
2022/03/12 06:05:25;;;;;;;10.10;2.35;;;;;;;;;;4972784;28;20463;-82
2022/03/12 06:07:52;;;;;;;11.23;2.38;;;;;;;;;;4970990;28;20237;-82
2022/03/12 06:10:28;;;;;;;9.07;1.90;;;;;;;;;;4951340;28;20053;-81
2022/03/12 06:12:56;;;;;;;8.38;2.28;;;;;;;;;;4967403;28;20495;-81
2022/03/12 06:15:24;;;;;;;6.70;2.17;;;;;;;;;;4967135;28;20037;-82
2022/03/12 06:17:50;;;;;;;12.90;2.03;;;;;;;;;;4965516;28;20041;-82
2022/03/12 06:20:22;;;;;;;10.02;1.77;;;;;;;;;;4952851;28;20034;-82
2022/03/12 06:23:02;;;;;;;8.38;1.98;;;;;;;;;;4949991;28;20026;-82
2022/03/12 06:25:30;;;;;;;8.30;2.45;;;;;;;;;;4980554;28;20535;-82
2022/03/12 06:28:43;;;;;;;12.48;2.58;;;;;;;;;;4966274;28;20035;-81
2022/03/12 06:34:47;;;;;;;8.88;1.83;;;;;;;;;;4929879;29;21105;-81
2022/03/12 06:37:13;;;;;;;10.20;2.45;;;;;;;;;;4950344;28;20070;-82
2022/03/12 06:39:38;;;;;;;7.10;1.48;;;;;;;;;;4972836;28;20118;-83
2022/03/12 06:42:04;;;;;;;5.43;1.92;;;;;;;;;;4963351;28;20055;-82
2022/03/12 06:44:33;;;;;;;9.65;1.88;;;;;;;;;;4976601;28;20030;-81
2022/03/12 06:47:02;;;;;;;10.60;2.53;;;;;;;;;;4963056;28;20074;-81
2022/03/12 06:49:28;;;;;;;8.23;1.63;;;;;;;;;;4980774;28;20513;-82
2022/03/12 06:51:54;;;;;;;5.35;1.17;;;;;;;;;;4965015;28;20039;-81
2022/03/12 06:54:20;;;;;;;2.65;1.30;;;;;;;;;;4965707;28;20158;-80
2022/03/12 06:56:46;;;;;;;6.10;0.98;;;;;;;;;;4967319;28;20709;-82
2022/03/12 06:59:12;;;;;;;5.82;1.45;;;;;;;;;;4964207;28;20049;-81
2022/03/12 07:01:38;;;;;;;7.03;1.30;;;;;;;;;;4966436;28;20053;-82
2022/03/12 07:04:06;;;;;;;6.07;1.50;;;;;;;;;;4978920;28;20298;-81
2022/03/12 07:06:33;;;;;;;3.70;1.15;;;;;;;;;;4966721;28;20119;-83
2022/03/12 07:08:59;;;;;;;2.78;0.98;;;;;;;;;;4966728;28;20129;-81
2022/03/12 07:11:25;;;;;;;9.70;1.40;;;;;;;;;;4962386;28;20240;-82
2022/03/12 07:13:50;;;;;;;7.57;1.40;;;;;;;;;;4980739;28;20773;-82
2022/03/12 07:16:16;;;;;;;5.10;1.13;;;;;;;;;;4967236;28;20093;-82
2022/03/12 07:18:41;;;;;;;5.47;1.35;;;;;;;;;;4968433;28;20649;-82
2022/03/12 07:21:07;;;;;;;4.40;1.00;;;;;;;;;;4968300;28;20092;-82
2022/03/12 07:23:33;;;;;;;2.05;0.77;;;;;;;;;;4967027;28;20039;-82
2022/03/12 07:25:59;;;;;;;4.20;0.98;;;;;;;;;;4963550;28;20057;-81
2022/03/12 07:28:24;;;;;;;5.93;1.00;;;;;;;;;;4961044;28;20032;-82
2022/03/12 07:30:50;;;;;;;1.25;0.80;;;;;;;;;;4957352;28;20034;-82
2022/03/12 07:33:16;;;;;;;3.38;0.82;;;;;;;;;;4964088;28;20023;-82
2022/03/12 07:35:42;;;;;;;3.67;0.93;;;;;;;;;;4966424;28;20050;-83
2022/03/12 07:38:07;;;;;;;2.05;0.80;;;;;;;;;;4949507;28;20451;-82
2022/03/12 07:40:33;;;;;;;3.58;0.80;;;;;;;;;;4965949;28;20081;-82
2022/03/12 07:42:59;;;;;;;2.35;0.50;;;;;;;;;;4966723;28;20027;-82
2022/03/12 07:45:25;;;;;;;6.80;0.80;;;;;;;;;;4981390;28;20058;-81
2022/03/12 07:47:52;;;;;;;2.63;0.70;;;;;;;;;;4948857;28;20144;-81
2022/03/12 07:50:18;;;;;;;5.32;0.63;;;;;;;;;;4980545;28;20039;-82
2022/03/12 07:52:44;;;;;;;2.83;0.50;;;;;;;;;;4968300;28;20668;-81
2022/03/12 07:55:11;;;;;;;2.28;0.47;;;;;;;;;;4983526;28;20399;-81
2022/03/12 07:57:37;;;;;;;1.95;0.47;;;;;;;;;;4966125;28;20041;-81
2022/03/12 08:00:09;;;;;;;0.80;0.45;;;;;;;;;;4983252;28;20033;-82
2022/03/12 08:02:35;;;;;;;6.97;0.80;;;;;;;;;;4973074;28;20439;-81
2022/03/12 08:05:01;;;;;;;1.77;0.32;;;;;;;;;;4947044;28;20045;-81
2022/03/12 08:07:28;;;;;;;2.30;0.50;;;;;;;;;;4948489;28;20026;-82
2022/03/12 08:09:56;;;;;;;3.85;0.40;;;;;;;;;;4962611;28;20038;-83
2022/03/12 08:12:28;;;;;;;4.90;1.08;;;;;;;;;;4963030;28;20062;-82
2022/03/12 08:14:54;;;;;;;0.82;0.15;;;;;;;;;;4962488;28;20545;-82
2022/03/12 08:17:19;;;;;;;8.70;0.77;;;;;;;;;;4962225;28;20212;-82
2022/03/12 08:19:46;;;;;;;5.07;0.40;;;;;;;;;;4962977;28;20447;-82
2022/03/12 08:22:13;;;;;;;6.32;0.77;;;;;;;;;;4966307;28;20030;-81
2022/03/12 08:24:38;;;;;;;3.22;0.30;;;;;;;;;;4964208;28;20422;-81
2022/03/12 08:27:05;;;;;;;3.17;0.43;;;;;;;;;;4965883;28;20041;-81
2022/03/12 08:29:31;;;;;;;9.70;0.57;;;;;;;;;;4963813;28;20066;-82
2022/03/12 08:31:57;;;;;;;3.80;0.63;;;;;;;;;;4959791;28;20062;-82
2022/03/12 08:34:23;;;;;;;1.70;0.47;;;;;;;;;;4964910;28;20035;-81
2022/03/12 08:36:49;;;;;;;7.22;0.50;;;;;;;;;;4960350;28;20034;-83
2022/03/12 08:39:15;;;;;;;1.20;0.47;;;;;;;;;;4986164;28;20030;-82
2022/03/12 08:41:41;;;;;;;4.40;0.40;;;;;;;;;;4958091;28;20768;-81
2022/03/12 08:44:09;;;;;;;4.15;0.57;;;;;;;;;;4966293;28;20451;-81
2022/03/12 08:46:35;;;;;;;13.85;0.50;;;;;;;;;;4974523;28;20446;-81
2022/03/12 08:49:01;;;;;;;8.40;0.70;;;;;;;;;;4968564;28;20521;-81
2022/03/12 08:51:27;;;;;;;3.47;0.50;;;;;;;;;;4949298;28;20061;-82
2022/03/12 08:53:52;;;;;;;4.20;0.80;;;;;;;;;;4976027;28;20122;-81
2022/03/12 08:56:18;;;;;;;7.85;0.77;;;;;;;;;;4970707;28;20026;-81
2022/03/12 08:58:44;;;;;;;3.85;0.60;;;;;;;;;;4972249;28;20042;-81
2022/03/12 09:01:10;;;;;;;3.05;0.47;;;;;;;;;;4968950;28;20041;-81
2022/03/12 09:03:37;;;;;;;3.72;0.63;;;;;;;;;;4969152;28;20035;-81
2022/03/12 09:06:03;;;;;;;4.45;0.40;;;;;;;;;;4967623;28;20038;-81
2022/03/12 09:08:29;;;;;;;4.43;0.52;;;;;;;;;;4970155;28;20133;-80
2022/03/12 09:10:55;;;;;;;6.03;0.73;;;;;;;;;;4949530;28;20126;-81
2022/03/12 09:13:22;;;;;;;3.55;0.45;;;;;;;;;;4985465;28;20023;-81
2022/03/12 09:15:47;;;;;;;14.13;0.90;;;;;;;;;;4968699;28;20042;-81
2022/03/12 09:18:15;;;;;;;6.60;0.63;;;;;;;;;;4966948;28;20034;-81
2022/03/12 09:20:45;;;;;;;2.38;0.20;;;;;;;;;;4960082;28;20027;-81
2022/03/12 09:23:13;;;;;;;5.88;0.55;;;;;;;;;;4987938;28;20577;-81
2022/03/12 09:25:38;;;;;;;7.28;0.63;;;;;;;;;;4981316;28;20042;-82
2022/03/12 09:28:04;;;;;;;6.13;0.43;;;;;;;;;;4965939;28;20031;-81
2022/03/12 09:30:30;;;;;;;0.90;0.30;;;;;;;;;;4983580;28;20171;-81
2022/03/12 09:32:55;;;;;;;3.85;0.30;;;;;;;;;;4951963;28;20039;-81
2022/03/12 09:35:22;;;;;;;5.80;0.35;;;;;;;;;;4968157;28;20035;-82
2022/03/12 09:37:48;;;;;;;6.97;0.75;;;;;;;;;;4970313;28;20546;-81
2022/03/12 09:40:17;;;;;;;5.85;0.95;;;;;;;;;;4988833;28;20035;-82
2022/03/12 09:42:43;;;;;;;7.20;0.63;;;;;;;;;;4982353;28;20011;-81
2022/03/12 09:45:11;;;;;;;3.65;0.38;;;;;;;;;;4975617;28;20038;-82
2022/03/12 09:47:36;;;;;;;6.38;0.55;;;;;;;;;;4966700;28;20043;-81
2022/03/12 09:50:04;;;;;;;3.97;0.40;;;;;;;;;;4980053;28;20042;-82
2022/03/12 09:52:30;;;;;;;4.93;0.75;;;;;;;;;;4970686;28;20101;-81
2022/03/12 09:54:56;;;;;;;4.80;0.50;;;;;;;;;;4969341;28;20425;-81
2022/03/12 09:57:21;;;;;;;4.43;0.32;;;;;;;;;;4967423;28;20043;-81
2022/03/12 10:00:00;;;;;;;2.72;0.43;;;;;;;;;;4951829;28;20511;-82
2022/03/12 10:02:25;;;;;;;6.15;0.65;;;;;;;;;;4955126;28;20053;-83
2022/03/12 10:04:51;;;;;;;7.28;0.60;;;;;;;;;;4967730;28;20031;-84
2022/03/12 10:07:17;;;;;;;5.97;0.60;;;;;;;;;;4953362;28;20035;-85
2022/03/12 10:09:42;;;;;;;6.88;0.50;;;;;;;;;;4966511;28;20039;-83
2022/03/12 10:12:08;;;;;;;7.53;0.50;;;;;;;;;;4961215;28;20782;-84
2022/03/12 10:14:35;;;;;;;4.18;0.43;;;;;;;;;;4966908;28;20031;-84
2022/03/12 10:17:02;;;;;;;4.38;0.50;;;;;;;;;;4963862;28;20125;-84
2022/03/12 10:19:30;;;;;;;4.88;0.45;;;;;;;;;;4966439;28;20053;-83
2022/03/12 10:21:56;;;;;;;7.72;0.40;;;;;;;;;;4969293;28;20042;-83
2022/03/12 10:24:22;;;;;;;6.10;0.50;;;;;;;;;;4965864;28;20035;-84
2022/03/12 10:26:47;;;;;;;4.22;0.65;;;;;;;;;;4964064;28;20041;-85
2022/03/12 10:29:13;;;;;;;6.95;0.50;;;;;;;;;;4967019;28;20147;-84
2022/03/12 10:31:39;;;;;;;6.65;0.45;;;;;;;;;;4969101;28;20117;-83
2022/03/12 10:34:12;;;;;;;10.15;0.70;;;;;;;;;;4981736;28;20089;-84
2022/03/12 10:36:39;;;;;;;7.80;0.73;;;;;;;;;;4967602;28;20038;-85
2022/03/12 10:39:05;;;;;;;3.45;0.32;;;;;;;;;;4945541;28;20042;-83
2022/03/12 10:41:31;;;;;;;5.03;0.65;;;;;;;;;;4947497;28;20700;-83
2022/03/12 10:43:56;;;;;;;8.65;0.77;;;;;;;;;;4964768;28;20045;-85
2022/03/12 10:46:34;;;;;;;4.53;0.32;;;;;;;;;;4973351;28;20059;-84
2022/03/12 10:49:04;;;;;;;5.85;0.40;;;;;;;;;;4964161;28;20030;-84
2022/03/12 10:51:35;;;;;;;6.35;0.70;;;;;;;;;;4980834;28;20096;-83
2022/03/12 10:54:04;;;;;;;6.43;0.73;;;;;;;;;;4967610;28;20109;-86
2022/03/12 10:56:47;;;;;;;6.18;0.55;;;;;;;;;;4966993;28;20039;-83
2022/03/12 10:59:19;;;;;;;;;;;;;;;;;;4985581;28;20038;-85
2022/03/12 11:01:51;;;;;;;6.35;0.45;;;;;;;;;;4988588;28;19914;-81
2022/03/12 11:04:18;;;;;;;5.90;0.30;;;;;;;;;;4967395;28;20031;-82
2022/03/12 11:06:45;;;;;;;2.05;0.40;;;;;;;;;;4968362;28;20043;-84
2022/03/12 11:09:37;;;;;;;7.38;0.82;;;;;;;;;;4969008;28;20031;-85
2022/03/12 11:12:04;;;;;;;;;;;;;;;;;;4966127;28;20126;-84
2022/03/12 11:14:31;;;;;;;7.95;0.95;;;;;;;;;;4980945;28;20409;-82
2022/03/12 11:17:21;;;;;;;10.65;0.68;;;;;;;;;;4968830;28;20066;-86
2022/03/12 11:19:47;;;;;;;7.00;1.60;;;;;;;;;;4981711;28;20030;-83
2022/03/12 11:22:14;;;;;;;6.22;0.65;;;;;;;;;;4972025;28;20039;-83
2022/03/12 11:24:49;;;;;;;8.80;0.68;;;;;;;;;;4971845;28;20061;-84
2022/03/12 11:27:32;;;;;;;6.80;0.95;;;;;;;;;;4968164;28;20062;-85
2022/03/12 11:30:08;;;;;;;4.75;0.70;;;;;;;;;;4964745;28;20050;-85
2022/03/12 11:32:34;;;;;;;7.00;0.63;;;;;;;;;;4967968;28;20031;-85
2022/03/12 11:35:11;;;;;;;5.60;1.15;;;;;;;;;;4967125;28;20031;-85
2022/03/12 11:37:42;;;;;;;7.95;1.02;;;;;;;;;;4987196;28;20390;-84
2022/03/12 11:40:11;;;;;;;4.13;0.40;;;;;;;;;;4967324;28;20049;-84
2022/03/12 11:42:39;;;;;;;9.80;1.08;;;;;;;;;;4965452;28;20031;-86
2022/03/12 11:45:14;;;;;;;10.32;0.85;;;;;;;;;;4969571;28;20019;-86
2022/03/12 11:47:43;;;;;;;6.35;0.55;;;;;;;;;;4970583;28;20054;-85
2022/03/12 11:50:18;;;;;;;5.30;0.85;;;;;;;;;;4967851;28;20497;-85
2022/03/12 11:52:46;;;;;;;5.07;0.52;;;;;;;;;;4967264;28;20031;-86
2022/03/12 11:55:18;;;;;;;10.35;0.63;;;;;;;;;;4970271;28;20030;-84
2022/03/12 11:57:48;;;;;;;6.13;0.57;;;;;;;;;;4965860;28;20113;-85
2022/03/12 12:00:30;;;;;;;3.72;0.57;;;;;;;;;;4968122;28;20063;-84
2022/03/12 12:02:57;;;;;;;4.40;0.30;;;;;;;;;;4968997;28;20019;-84
2022/03/12 12:05:25;;;;;;;5.90;0.40;;;;;;;;;;4972654;28;20031;-84
2022/03/12 12:07:52;;;;;;;7.35;0.70;;;;;;;;;;4982709;28;20118;-84
2022/03/12 12:10:27;;;;;;;3.70;0.60;;;;;;;;;;4975899;28;20057;-83
2022/03/12 12:12:53;;;;;;;9.00;0.50;;;;;;;;;;4987334;28;20073;-86
2022/03/12 12:15:29;;;;;;;7.50;0.98;;;;;;;;;;4951630;28;20144;-86
2022/03/12 12:17:55;;;;;;;5.78;0.95;;;;;;;;;;4980131;28;20497;-85
2022/03/12 12:20:22;;;;;;;5.05;0.50;;;;;;;;;;4970719;28;20041;-84
2022/03/12 12:22:49;;;;;;;6.95;0.47;;;;;;;;;;4968451;28;20031;-82
2022/03/12 12:25:16;;;;;;;2.80;0.47;;;;;;;;;;4972710;28;20470;-84
2022/03/12 12:27:53;;;;;;;4.80;0.30;;;;;;;;;;4987482;28;20125;-84
2022/03/12 12:30:38;;;;;;;7.45;1.25;;;;;;;;;;4990447;28;20030;-84
2022/03/12 12:33:26;;;;;;;13.15;0.73;;;;;;;;;;4972756;28;20026;-85
2022/03/12 12:36:12;;;;;;;4.47;0.65;;;;;;;;;;4955294;28;20034;-83
2022/03/12 12:38:40;;;;;;;4.80;0.65;;;;;;;;;;4966578;28;20046;-84
2022/03/12 12:41:06;;;;;;;8.25;1.05;;;;;;;;;;4985946;28;20030;-85
2022/03/12 12:43:32;;;;;;;11.57;0.73;;;;;;;;;;4976047;28;20014;-85
2022/03/12 12:45:57;;;;;;;7.10;0.90;;;;;;;;;;4976839;28;20076;-85
2022/03/12 12:48:41;;;;;;;6.93;0.85;;;;;;;;;;4971681;28;20042;-84
2022/03/12 12:51:12;;;;;;;7.95;0.65;;;;;;;;;;4971914;28;20045;-84
2022/03/12 12:53:46;;;;;;;8.93;0.60;;;;;;;;;;4975318;28;20057;-85
2022/03/12 12:56:29;;;;;;;11.63;1.10;;;;;;;;;;4960580;28;20542;-83
2022/03/12 12:59:48;;;;;;;11.30;1.10;;;;;;;;;;4970042;28;20089;-83
2022/03/12 13:02:13;;;;;;;5.43;0.82;;;;;;;;;;4963701;28;20077;-86
2022/03/12 13:04:49;;;;;;;6.40;0.85;;;;;;;;;;4978494;28;20499;-81
2022/03/12 13:07:58;;;;;;;8.93;1.00;;;;;;;;;;4989711;28;20587;-85
2022/03/12 13:10:27;;;;;;;5.47;0.90;;;;;;;;;;4969051;28;20046;-83
2022/03/12 13:13:16;;;;;;;14.15;1.02;;;;;;;;;;4986610;28;20027;-82
2022/03/12 13:15:45;;;;;;;9.27;0.80;;;;;;;;;;4982047;28;20653;-85
2022/03/12 13:18:17;;;;;;;12.35;1.33;;;;;;;;;;4980676;28;20034;-83
2022/03/12 13:20:45;;;;;;;4.30;0.75;;;;;;;;;;4971615;28;20023;-85
2022/03/12 13:23:12;;;;;;;8.90;0.93;;;;;;;;;;4965154;28;20035;-86
2022/03/12 13:25:55;;;;;;;14.20;1.25;;;;;;;;;;4969293;28;20026;-84
2022/03/12 13:28:42;;;;;;;9.02;0.70;;;;;;;;;;4988149;28;20053;-85
2022/03/12 13:31:19;;;;;;;13.60;1.45;;;;;;;;;;4984358;28;20514;-83
2022/03/12 13:33:47;;;;;;;12.82;1.33;;;;;;;;;;4987969;28;20027;-84
2022/03/12 13:36:28;;;;;;;7.68;1.15;;;;;;;;;;4989358;28;20030;-84
2022/03/12 13:38:54;;;;;;;10.38;2.05;;;;;;;;;;4969805;28;20023;-85
2022/03/12 13:41:21;;;;;;;16.80;1.40;;;;;;;;;;4972102;28;20035;-90
2022/03/12 13:43:47;;;;;;;11.43;1.75;;;;;;;;;;4966284;28;20059;-84
2022/03/12 13:46:13;;;;;;;11.18;1.00;;;;;;;;;;4971573;28;20159;-83
2022/03/12 13:48:43;;;;;;;11.52;1.50;;;;;;;;;;4974396;28;20118;-85
2022/03/12 13:51:09;;;;;;;11.25;1.25;;;;;;;;;;4971967;28;20069;-84
2022/03/12 13:53:37;;;;;;;10.55;1.05;;;;;;;;;;4967334;28;20042;-87
2022/03/12 13:56:05;;;;;;;11.32;0.82;;;;;;;;;;4985512;28;20062;-85
2022/03/12 13:58:31;;;;;;;12.27;1.20;;;;;;;;;;4965642;28;20110;-85
2022/03/12 14:01:00;;;;;;;15.35;1.70;;;;;;;;;;4973475;28;20130;-85
2022/03/12 14:03:29;;;;;;;13.50;1.75;;;;;;;;;;4942283;28;20313;-85
2022/03/12 14:05:55;;;;;;;8.40;1.65;;;;;;;;;;4970720;28;20098;-86
2022/03/12 14:08:24;;;;;;;15.80;1.60;;;;;;;;;;4983556;28;20129;-87
2022/03/12 14:10:50;;;;;;;9.25;0.95;;;;;;;;;;4975423;28;20098;-86
2022/03/12 14:13:16;;;;;;;15.13;1.23;;;;;;;;;;4982945;28;20120;-85
2022/03/12 14:15:42;;;;;;;9.02;1.15;;;;;;;;;;4970760;28;20035;-83
2022/03/12 14:18:08;;;;;;;25.23;1.98;;;;;;;;;;4989055;28;20038;-84
2022/03/12 14:20:35;;;;;;;17.70;1.73;;;;;;;;;;4971636;28;20129;-84
2022/03/12 14:23:01;;;;;;;11.48;1.58;;;;;;;;;;4969770;28;20027;-84
2022/03/12 14:25:31;;;;;;;10.85;1.17;;;;;;;;;;4954873;28;20035;-84
2022/03/12 14:27:57;;;;;;;14.43;1.80;;;;;;;;;;4979282;28;20038;-84
2022/03/12 14:30:24;;;;;;;15.23;1.40;;;;;;;;;;4981804;28;20039;-85
2022/03/12 14:32:51;;;;;;;16.27;1.23;;;;;;;;;;4964188;28;20031;-83
2022/03/12 14:35:16;;;;;;;15.73;1.70;;;;;;;;;;4976650;28;20026;-84
2022/03/12 14:37:43;;;;;;;13.60;1.45;;;;;;;;;;4970227;28;20093;-84
2022/03/12 14:40:13;;;;;;;20.60;2.13;;;;;;;;;;4971067;28;20041;-84
2022/03/12 14:42:40;;;;;;;12.65;1.60;;;;;;;;;;4971037;28;20093;-86
2022/03/12 14:45:09;;;;;;;20.45;1.98;;;;;;;;;;4981425;28;20522;-87
2022/03/12 14:47:35;;;;;;;13.90;1.33;;;;;;;;;;4987940;28;20049;-84
2022/03/12 14:50:07;;;;;;;17.67;2.20;;;;;;;;;;4978641;28;20057;-84
2022/03/12 14:52:33;;;;;;;;;;;;;;;;;;4981787;28;20023;-86